<?xml version="1.0" encoding="UTF-8" ?>
		<gpx
		 version="1.0"
		 xmlns:xsi="http://www.w3.org/2001/XMLSchema-instance"
		 xmlns="http://www.topografix.com/GPX/1/0"
		 xsi:schemaLocation="http://www.topografix.com/GPX/1/0 http://www.topografix.com/GPX/1/0/gpx.xsd"
		 creator="http://www.openrunner.com">
			<trk>
			    <name>--Sainte-Eulalie-- OR-5833350:Liaison Villevielle TMA</name>
			    <trkseg>
	
			<trkpt lat="44.85114" lon="4.1891">
			 <ele>1362</ele>
			<time>2016-03-16T17:35:43Z</time>
			</trkpt>
		
			<trkpt lat="44.85102" lon="4.18938">
			 <ele>1360</ele>
			<time>2016-03-16T17:37:43Z</time>
			</trkpt>
		
			<trkpt lat="44.85095" lon="4.18961">
			 <ele>1359</ele>
			<time>2016-03-16T17:39:43Z</time>
			</trkpt>
		
			<trkpt lat="44.85114" lon="4.18966">
			 <ele>1359</ele>
			<time>2016-03-16T17:41:43Z</time>
			</trkpt>
		
			<trkpt lat="44.85168" lon="4.18935">
			 <ele>1363</ele>
			<time>2016-03-16T17:43:43Z</time>
			</trkpt>
		
			<trkpt lat="44.8524" lon="4.18912">
			 <ele>1369</ele>
			<time>2016-03-16T17:45:43Z</time>
			</trkpt>
		
			<trkpt lat="44.85325" lon="4.189">
			 <ele>1377</ele>
			<time>2016-03-16T17:47:43Z</time>
			</trkpt>
		
			<trkpt lat="44.85387" lon="4.18885">
			 <ele>1382</ele>
			<time>2016-03-16T17:49:43Z</time>
			</trkpt>
		
			<trkpt lat="44.85444" lon="4.18866">
			 <ele>1387</ele>
			<time>2016-03-16T17:51:43Z</time>
			</trkpt>
		
			<trkpt lat="44.8551" lon="4.18847">
			 <ele>1392</ele>
			<time>2016-03-16T17:53:43Z</time>
			</trkpt>
		
			<trkpt lat="44.85533" lon="4.18841">
			 <ele>1395</ele>
			<time>2016-03-16T17:55:43Z</time>
			</trkpt>
		
			<trkpt lat="44.85549" lon="4.18825">
			 <ele>1398</ele>
			<time>2016-03-16T17:57:43Z</time>
			</trkpt>
		
			<trkpt lat="44.85494" lon="4.18768">
			 <ele>1399</ele>
			<time>2016-03-16T17:59:43Z</time>
			</trkpt>
		
			<trkpt lat="44.85456" lon="4.18712">
			 <ele>1404</ele>
			<time>2016-03-16T18:01:43Z</time>
			</trkpt>
		
			<trkpt lat="44.85413" lon="4.18659">
			 <ele>1409</ele>
			<time>2016-03-16T18:03:43Z</time>
			</trkpt>
		
			<trkpt lat="44.85378" lon="4.18621">
			 <ele>1411</ele>
			<time>2016-03-16T18:05:43Z</time>
			</trkpt>
		
			<trkpt lat="44.8534" lon="4.18578">
			 <ele>1414</ele>
			<time>2016-03-16T18:07:43Z</time>
			</trkpt>
		
			<trkpt lat="44.8532" lon="4.18564">
			 <ele>1415</ele>
			<time>2016-03-16T18:09:43Z</time>
			</trkpt>
		
			<trkpt lat="44.85316" lon="4.1854">
			 <ele>1418</ele>
			<time>2016-03-16T18:11:43Z</time>
			</trkpt>
		
			<trkpt lat="44.85371" lon="4.18542">
			 <ele>1420</ele>
			<time>2016-03-16T18:13:43Z</time>
			</trkpt>
		
			<trkpt lat="44.85406" lon="4.18533">
			 <ele>1423</ele>
			<time>2016-03-16T18:15:43Z</time>
			</trkpt>
		
			<trkpt lat="44.8546" lon="4.18499">
			 <ele>1429</ele>
			<time>2016-03-16T18:17:43Z</time>
			</trkpt>
		
			<trkpt lat="44.85511" lon="4.18482">
			 <ele>1433</ele>
			<time>2016-03-16T18:19:43Z</time>
			</trkpt>
		
			<trkpt lat="44.85573" lon="4.18422">
			 <ele>1440</ele>
			<time>2016-03-16T18:21:43Z</time>
			</trkpt>
		
			<trkpt lat="44.85585" lon="4.18327">
			 <ele>1447</ele>
			<time>2016-03-16T18:23:43Z</time>
			</trkpt>
		
			<trkpt lat="44.8559" lon="4.18292">
			 <ele>1450</ele>
			<time>2016-03-16T18:25:43Z</time>
			</trkpt>
		
			<trkpt lat="44.85631" lon="4.18287">
			 <ele>1450</ele>
			<time>2016-03-16T18:27:43Z</time>
			</trkpt>
		
			<trkpt lat="44.85659" lon="4.1825">
			 <ele>1453</ele>
			<time>2016-03-16T18:29:43Z</time>
			</trkpt>
		
			<trkpt lat="44.8566" lon="4.18187">
			 <ele>1458</ele>
			<time>2016-03-16T18:31:43Z</time>
			</trkpt>
		
			<trkpt lat="44.85681" lon="4.18174">
			 <ele>1460</ele>
			<time>2016-03-16T18:33:43Z</time>
			</trkpt>
		
			<trkpt lat="44.85746" lon="4.18237">
			 <ele>1460</ele>
			<time>2016-03-16T18:35:43Z</time>
			</trkpt>
		
			<trkpt lat="44.85768" lon="4.18251">
			 <ele>1462</ele>
			<time>2016-03-16T18:37:43Z</time>
			</trkpt>
		
			<trkpt lat="44.8579" lon="4.18244">
			 <ele>1465</ele>
			<time>2016-03-16T18:39:43Z</time>
			</trkpt>
		
			<trkpt lat="44.85822" lon="4.18206">
			 <ele>1469</ele>
			<time>2016-03-16T18:41:43Z</time>
			</trkpt>
		
			<trkpt lat="44.85877" lon="4.18187">
			 <ele>1471</ele>
			<time>2016-03-16T18:43:43Z</time>
			</trkpt>
		
			<trkpt lat="44.85938" lon="4.18199">
			 <ele>1472</ele>
			<time>2016-03-16T18:45:43Z</time>
			</trkpt>
		
			<trkpt lat="44.8598" lon="4.18184">
			 <ele>1471</ele>
			<time>2016-03-16T18:47:43Z</time>
			</trkpt>
		
			<trkpt lat="44.8604" lon="4.18192">
			 <ele>1471</ele>
			<time>2016-03-16T18:49:43Z</time>
			</trkpt>
		
			<trkpt lat="44.86112" lon="4.18223">
			 <ele>1470</ele>
			<time>2016-03-16T18:51:43Z</time>
			</trkpt>
		
			<trkpt lat="44.86175" lon="4.18277">
			 <ele>1468</ele>
			<time>2016-03-16T18:53:43Z</time>
			</trkpt>
		
			<trkpt lat="44.86224" lon="4.18312">
			 <ele>1466</ele>
			<time>2016-03-16T18:55:43Z</time>
			</trkpt>
		
			<trkpt lat="44.86319" lon="4.18349">
			 <ele>1465</ele>
			<time>2016-03-16T18:57:43Z</time>
			</trkpt>
		
			<trkpt lat="44.86384" lon="4.1838">
			 <ele>1466</ele>
			<time>2016-03-16T18:59:43Z</time>
			</trkpt>
		
			<trkpt lat="44.86465" lon="4.18418">
			 <ele>1468</ele>
			<time>2016-03-16T19:01:43Z</time>
			</trkpt>
		
			<trkpt lat="44.86533" lon="4.18481">
			 <ele>1470</ele>
			<time>2016-03-16T19:03:43Z</time>
			</trkpt>
		
			<trkpt lat="44.866" lon="4.18541">
			 <ele>1468</ele>
			<time>2016-03-16T19:05:43Z</time>
			</trkpt>
		
			<trkpt lat="44.86635" lon="4.18591">
			 <ele>1467</ele>
			<time>2016-03-16T19:07:43Z</time>
			</trkpt>
		
			<trkpt lat="44.86705" lon="4.18626">
			 <ele>1462</ele>
			<time>2016-03-16T19:09:43Z</time>
			</trkpt>
		
			<trkpt lat="44.86775" lon="4.18661">
			 <ele>1462</ele>
			<time>2016-03-16T19:11:43Z</time>
			</trkpt>
		
			<trkpt lat="44.86813" lon="4.18676">
			 <ele>1463</ele>
			<time>2016-03-16T19:13:43Z</time>
			</trkpt>
		
			<trkpt lat="44.8686" lon="4.18655">
			 <ele>1461</ele>
			<time>2016-03-16T19:15:43Z</time>
			</trkpt>
		
			<trkpt lat="44.86894" lon="4.18636">
			 <ele>1458</ele>
			<time>2016-03-16T19:17:43Z</time>
			</trkpt>
		
			<trkpt lat="44.8693" lon="4.18637">
			 <ele>1459</ele>
			<time>2016-03-16T19:19:43Z</time>
			</trkpt>
		
				</trkseg>
			   </trk>
			 </gpx>
	